sensor_id;sensor_type;location;lat;lon;timestamp;pressure;altitude;pressure_sealevel;temperature;humidity
9690;BME280;4884;42.614;23.340;2022-07-17T00:00:23;159711.38;;;19.66;100.00
9690;BME280;4884;42.614;23.340;2022-07-17T00:02:49;159667.91;;;19.50;100.00
9690;BME280;4884;42.614;23.340;2022-07-17T00:05:15;159643.44;;;19.41;100.00
9690;BME280;4884;42.614;23.340;2022-07-17T00:07:40;159715.47;;;19.68;100.00
9690;BME280;4884;42.614;23.340;2022-07-17T00:10:06;159710.03;;;19.66;100.00
9690;BME280;4884;42.614;23.340;2022-07-17T00:12:32;159705.97;;;19.64;100.00
9690;BME280;4884;42.614;23.340;2022-07-17T00:14:57;159718.16;;;19.69;100.00
9690;BME280;4884;42.614;23.340;2022-07-17T00:17:23;159705.97;;;19.64;100.00
9690;BME280;4884;42.614;23.340;2022-07-17T00:19:49;159631.22;;;19.36;100.00
9690;BME280;4884;42.614;23.340;2022-07-17T00:22:14;159618.97;;;19.31;100.00
9690;BME280;4884;42.614;23.340;2022-07-17T00:24:39;159667.91;;;19.50;100.00
9690;BME280;4884;42.614;23.340;2022-07-17T00:27:05;159674.69;;;19.52;100.00
9690;BME280;4884;42.614;23.340;2022-07-17T00:29:30;159676.03;;;19.53;100.00
9690;BME280;4884;42.614;23.340;2022-07-17T00:31:56;159624.41;;;19.33;100.00
9690;BME280;4884;42.614;23.340;2022-07-17T00:34:21;159590.44;;;19.21;100.00
9690;BME280;4884;42.614;23.340;2022-07-17T00:36:47;159586.38;;;19.19;100.00
9690;BME280;4884;42.614;23.340;2022-07-17T00:39:12;159594.53;;;19.22;100.00
9690;BME280;4884;42.614;23.340;2022-07-17T00:41:38;159575.50;;;19.15;100.00
9690;BME280;4884;42.614;23.340;2022-07-17T00:44:09;159570.06;;;19.13;100.00
9690;BME280;4884;42.614;23.340;2022-07-17T00:46:36;159548.34;;;19.05;100.00
9690;BME280;4884;42.614;23.340;2022-07-17T00:49:02;159578.19;;;19.16;100.00
9690;BME280;4884;42.614;23.340;2022-07-17T00:51:28;159586.38;;;19.19;100.00
9690;BME280;4884;42.614;23.340;2022-07-17T00:53:55;159591.78;;;19.21;100.00
9690;BME280;4884;42.614;23.340;2022-07-17T00:56:22;159591.78;;;19.21;100.00
9690;BME280;4884;42.614;23.340;2022-07-17T00:58:49;159578.19;;;19.16;100.00
9690;BME280;4884;42.614;23.340;2022-07-17T01:01:15;159597.22;;;19.23;100.00
9690;BME280;4884;42.614;23.340;2022-07-17T01:03:40;159602.66;;;19.25;100.00
9690;BME280;4884;42.614;23.340;2022-07-17T01:06:06;159576.84;;;19.15;100.00
9690;BME280;4884;42.614;23.340;2022-07-17T01:08:33;159578.19;;;19.16;100.00
9690;BME280;4884;42.614;23.340;2022-07-17T01:11:02;159590.44;;;19.21;100.00
9690;BME280;4884;42.614;23.340;2022-07-17T01:13:27;159599.97;;;19.24;100.00
9690;BME280;4884;42.614;23.340;2022-07-17T01:15:54;159583.63;;;19.18;100.00
9690;BME280;4884;42.614;23.340;2022-07-17T01:18:20;159579.59;;;19.16;100.00
9690;BME280;4884;42.614;23.340;2022-07-17T01:20:47;159589.06;;;19.20;100.00
9690;BME280;4884;42.614;23.340;2022-07-17T01:23:15;159560.53;;;19.09;100.00
9690;BME280;4884;42.614;23.340;2022-07-17T01:25:41;159570.06;;;19.13;100.00
9690;BME280;4884;42.614;23.340;2022-07-17T01:28:07;159540.16;;;19.02;100.00
9690;BME280;4884;42.614;23.340;2022-07-17T01:30:34;159564.63;;;19.11;100.00
9690;BME280;4884;42.614;23.340;2022-07-17T01:32:59;159492.63;;;18.84;100.00
9690;BME280;4884;42.614;23.340;2022-07-17T01:35:26;159483.09;;;18.80;100.00
9690;BME280;4884;42.614;23.340;2022-07-17T01:37:52;159523.88;;;18.95;100.00
9690;BME280;4884;42.614;23.340;2022-07-17T01:40:18;159506.22;;;18.89;100.00
9690;BME280;4884;42.614;23.340;2022-07-17T01:42:48;159491.28;;;18.83;100.00
9690;BME280;4884;42.614;23.340;2022-07-17T01:45:16;159468.09;;;18.74;100.00
9690;BME280;4884;42.614;23.340;2022-07-17T01:47:42;159487.19;;;18.82;100.00
9690;BME280;4884;42.614;23.340;2022-07-17T01:50:09;159496.72;;;18.85;100.00
9690;BME280;4884;42.614;23.340;2022-07-17T01:52:36;159472.19;;;18.76;100.00
9690;BME280;4884;42.614;23.340;2022-07-17T01:55:04;159477.63;;;18.78;100.00
9690;BME280;4884;42.614;23.340;2022-07-17T01:57:29;159474.94;;;18.77;100.00
9690;BME280;4884;42.614;23.340;2022-07-17T01:59:55;159440.94;;;18.64;100.00
9690;BME280;4884;42.614;23.340;2022-07-17T02:02:20;159461.34;;;18.72;100.00
9690;BME280;4884;42.614;23.340;2022-07-17T02:04:46;159485.84;;;18.81;100.00
9690;BME280;4884;42.614;23.340;2022-07-17T02:07:11;159468.09;;;18.74;100.00
9690;BME280;4884;42.614;23.340;2022-07-17T02:09:37;159488.53;;;18.82;100.00
9690;BME280;4884;42.614;23.340;2022-07-17T02:12:04;159478.97;;;18.78;100.00
9690;BME280;4884;42.614;23.340;2022-07-17T02:14:30;159472.19;;;18.76;100.00
9690;BME280;4884;42.614;23.340;2022-07-17T02:16:56;159396.13;;;18.47;100.00
9690;BME280;4884;42.614;23.340;2022-07-17T02:19:22;159428.75;;;18.59;100.00
9690;BME280;4884;42.614;23.340;2022-07-17T02:21:47;159434.19;;;18.62;100.00
9690;BME280;4884;42.614;23.340;2022-07-17T02:24:13;159404.28;;;18.50;100.00
9690;BME280;4884;42.614;23.340;2022-07-17T02:26:39;159390.69;;;18.45;100.00
9690;BME280;4884;42.614;23.340;2022-07-17T02:29:05;159366.28;;;18.36;100.00
9690;BME280;4884;42.614;23.340;2022-07-17T02:31:30;159291.56;;;18.08;100.00
9690;BME280;4884;42.614;23.340;2022-07-17T02:33:56;159282.09;;;18.04;100.00
9690;BME280;4884;42.614;23.340;2022-07-17T02:36:22;159318.75;;;18.18;100.00
9690;BME280;4884;42.614;23.340;2022-07-17T02:38:47;159302.41;;;18.12;100.00
9690;BME280;4884;42.614;23.340;2022-07-17T02:41:13;159295.66;;;18.09;100.00
9690;BME280;4884;42.614;23.340;2022-07-17T02:43:38;159271.19;;;18.00;100.00
9690;BME280;4884;42.614;23.340;2022-07-17T02:46:04;159273.94;;;18.01;100.00
9690;BME280;4884;42.614;23.340;2022-07-17T02:48:29;159242.72;;;17.89;100.00
9690;BME280;4884;42.614;23.340;2022-07-17T02:50:55;159245.41;;;17.90;100.00
9690;BME280;4884;42.614;23.340;2022-07-17T02:53:20;159246.78;;;17.91;100.00
9690;BME280;4884;42.614;23.340;2022-07-17T02:55:46;159231.84;;;17.85;100.00
9690;BME280;4884;42.614;23.340;2022-07-17T02:58:11;159235.94;;;17.87;100.00
9690;BME280;4884;42.614;23.340;2022-07-17T03:00:37;159231.84;;;17.85;100.00
9690;BME280;4884;42.614;23.340;2022-07-17T03:03:02;159215.50;;;17.79;100.00
9690;BME280;4884;42.614;23.340;2022-07-17T03:05:28;159227.75;;;17.84;100.00
9690;BME280;4884;42.614;23.340;2022-07-17T03:07:53;159219.59;;;17.80;100.00
9690;BME280;4884;42.614;23.340;2022-07-17T03:10:19;159168.03;;;17.61;100.00
9690;BME280;4884;42.614;23.340;2022-07-17T03:12:44;159254.91;;;17.94;100.00
9690;BME280;4884;42.614;23.340;2022-07-17T03:15:10;159256.31;;;17.94;100.00
9690;BME280;4884;42.614;23.340;2022-07-17T03:17:38;159273.94;;;18.01;100.00
9690;BME280;4884;42.614;23.340;2022-07-17T03:20:04;159284.78;;;18.05;100.00
9690;BME280;4884;42.614;23.340;2022-07-17T03:22:29;159284.78;;;18.05;100.00
9690;BME280;4884;42.614;23.340;2022-07-17T03:24:55;159313.31;;;18.16;100.00
9690;BME280;4884;42.614;23.340;2022-07-17T03:27:20;159370.31;;;18.37;100.00
9690;BME280;4884;42.614;23.340;2022-07-17T03:29:46;159379.81;;;18.41;100.00
9690;BME280;4884;42.614;23.340;2022-07-17T03:32:12;159401.53;;;18.49;100.00
9690;BME280;4884;42.614;23.340;2022-07-17T03:34:38;159396.13;;;18.47;100.00
9690;BME280;4884;42.614;23.340;2022-07-17T03:37:04;159402.94;;;18.50;100.00
9690;BME280;4884;42.614;23.340;2022-07-17T03:39:30;159458.59;;;18.71;100.00
9690;BME280;4884;42.614;23.340;2022-07-17T03:41:56;159449.13;;;18.67;100.00
9690;BME280;4884;42.614;23.340;2022-07-17T03:44:21;159466.75;;;18.74;100.00
9690;BME280;4884;42.614;23.340;2022-07-17T03:46:47;159466.75;;;18.74;100.00
9690;BME280;4884;42.614;23.340;2022-07-17T03:49:13;159445.03;;;18.66;100.00
9690;BME280;4884;42.614;23.340;2022-07-17T03:51:38;159480.38;;;18.79;100.00
9690;BME280;4884;42.614;23.340;2022-07-17T03:54:03;159466.75;;;18.74;100.00
9690;BME280;4884;42.614;23.340;2022-07-17T03:56:29;159495.31;;;18.85;100.00
9690;BME280;4884;42.614;23.340;2022-07-17T03:58:55;159533.38;;;18.99;100.00
9690;BME280;4884;42.614;23.340;2022-07-17T04:01:20;159560.53;;;19.09;100.00
9690;BME280;4884;42.614;23.340;2022-07-17T04:03:45;159583.63;;;19.18;100.00
9690;BME280;4884;42.614;23.340;2022-07-17T04:06:11;159602.66;;;19.25;100.00
9690;BME280;4884;42.614;23.340;2022-07-17T04:08:37;159612.19;;;19.29;100.00
9690;BME280;4884;42.614;23.340;2022-07-17T04:11:02;159571.41;;;19.13;100.00
9690;BME280;4884;42.614;23.340;2022-07-17T04:13:28;159602.66;;;19.25;100.00
9690;BME280;4884;42.614;23.340;2022-07-17T04:15:53;159595.88;;;19.23;100.00
9690;BME280;4884;42.614;23.340;2022-07-17T04:18:25;159613.53;;;19.29;100.00
9690;BME280;4884;42.614;23.340;2022-07-17T04:20:54;159608.09;;;19.27;100.00
9690;BME280;4884;42.614;23.340;2022-07-17T04:23:20;159621.72;;;19.32;100.00
9690;BME280;4884;42.614;23.340;2022-07-17T04:25:45;159629.84;;;19.35;100.00
9690;BME280;4884;42.614;23.340;2022-07-17T04:28:11;159697.78;;;19.61;100.00
9690;BME280;4884;42.614;23.340;2022-07-17T04:30:37;159719.50;;;19.69;100.00
9690;BME280;4884;42.614;23.340;2022-07-17T04:33:03;159735.94;;;19.75;100.00
9690;BME280;4884;42.614;23.340;2022-07-17T04:35:29;159733.19;;;19.74;100.00
9690;BME280;4884;42.614;23.340;2022-07-17T04:37:55;159700.53;;;19.62;100.00
9690;BME280;4884;42.614;23.340;2022-07-17T04:40:21;159752.22;;;19.82;100.00
9690;BME280;4884;42.614;23.340;2022-07-17T04:42:46;159814.75;;;20.05;100.00
9690;BME280;4884;42.614;23.340;2022-07-17T04:45:12;159833.75;;;20.12;100.00
9690;BME280;4884;42.614;23.340;2022-07-17T04:47:39;159826.97;;;20.10;100.00
9690;BME280;4884;42.614;23.340;2022-07-17T04:50:05;159844.63;;;20.16;99.11
9690;BME280;4884;42.614;23.340;2022-07-17T04:52:31;159866.44;;;20.25;92.63
9690;BME280;4884;42.614;23.340;2022-07-17T04:54:56;159869.13;;;20.26;91.94
9690;BME280;4884;42.614;23.340;2022-07-17T04:57:22;159866.44;;;20.25;94.81
9690;BME280;4884;42.614;23.340;2022-07-17T04:59:47;159874.56;;;20.28;99.07
9690;BME280;4884;42.614;23.340;2022-07-17T05:02:13;159964.34;;;20.62;83.37
9690;BME280;4884;42.614;23.340;2022-07-17T05:04:38;159963.00;;;20.61;83.41
9690;BME280;4884;42.614;23.340;2022-07-17T05:07:04;159953.44;;;20.57;80.97
9690;BME280;4884;42.614;23.340;2022-07-17T05:09:29;159983.41;;;20.69;91.25
9690;BME280;4884;42.614;23.340;2022-07-17T05:11:54;160032.34;;;20.87;95.73
9690;BME280;4884;42.614;23.340;2022-07-17T05:14:20;160071.84;;;21.02;88.59
9690;BME280;4884;42.614;23.340;2022-07-17T05:16:45;160060.94;;;20.98;85.21
9690;BME280;4884;42.614;23.340;2022-07-17T05:19:11;160062.31;;;20.99;83.46
9690;BME280;4884;42.614;23.340;2022-07-17T05:21:36;160085.44;;;21.07;90.05
9690;BME280;4884;42.614;23.340;2022-07-17T05:24:02;160032.34;;;20.87;88.87
9690;BME280;4884;42.614;23.340;2022-07-17T05:26:27;160105.88;;;21.15;78.45
9690;BME280;4884;42.614;23.340;2022-07-17T05:28:53;160119.44;;;21.20;84.62
9690;BME280;4884;42.614;23.340;2022-07-17T05:31:18;160111.31;;;21.17;86.93
9690;BME280;4884;42.614;23.340;2022-07-17T05:33:44;160131.66;;;21.25;88.14
9690;BME280;4884;42.614;23.340;2022-07-17T05:36:09;160112.66;;;21.17;80.65
9690;BME280;4884;42.614;23.340;2022-07-17T05:38:35;160094.94;;;21.11;74.77
9690;BME280;4884;42.614;23.340;2022-07-17T05:41:00;160104.47;;;21.14;73.27
9690;BME280;4884;42.614;23.340;2022-07-17T05:43:26;160071.84;;;21.02;74.29
9690;BME280;4884;42.614;23.340;2022-07-17T05:45:56;160097.69;;;21.12;75.01
9690;BME280;4884;42.614;23.340;2022-07-17T05:48:22;160115.34;;;21.19;73.38
9690;BME280;4884;42.614;23.340;2022-07-17T05:50:47;160176.59;;;21.42;81.98
9690;BME280;4884;42.614;23.340;2022-07-17T05:53:13;160179.34;;;21.43;77.21
9690;BME280;4884;42.614;23.340;2022-07-17T05:55:40;160263.75;;;21.74;81.77
9690;BME280;4884;42.614;23.340;2022-07-17T05:58:06;160239.25;;;21.65;81.30
9690;BME280;4884;42.614;23.340;2022-07-17T06:00:32;160282.78;;;21.82;81.64
9690;BME280;4884;42.614;23.340;2022-07-17T06:02:57;160369.91;;;22.14;78.18
9690;BME280;4884;42.614;23.340;2022-07-17T06:05:23;160356.31;;;22.09;75.47
9690;BME280;4884;42.614;23.340;2022-07-17T06:07:49;160356.31;;;22.09;68.63
9690;BME280;4884;42.614;23.340;2022-07-17T06:10:14;160348.13;;;22.06;66.84
9690;BME280;4884;42.614;23.340;2022-07-17T06:12:40;160368.56;;;22.14;77.60
9690;BME280;4884;42.614;23.340;2022-07-17T06:15:05;160424.47;;;22.35;81.88
9690;BME280;4884;42.614;23.340;2022-07-17T06:17:31;160398.59;;;22.25;74.43
9690;BME280;4884;42.614;23.340;2022-07-17T06:19:56;160408.06;;;22.29;71.39
9690;BME280;4884;42.614;23.340;2022-07-17T06:22:22;160404.03;;;22.27;77.60
9690;BME280;4884;42.614;23.340;2022-07-17T06:24:47;160432.59;;;22.38;72.51
9690;BME280;4884;42.614;23.340;2022-07-17T06:27:14;160481.66;;;22.57;81.89
9690;BME280;4884;42.614;23.340;2022-07-17T06:29:39;160517.00;;;22.70;74.89
9690;BME280;4884;42.614;23.340;2022-07-17T06:32:06;160547.00;;;22.81;73.16
9690;BME280;4884;42.614;23.340;2022-07-17T06:34:31;160525.22;;;22.73;66.19
9690;BME280;4884;42.614;23.340;2022-07-17T06:36:57;160570.13;;;22.90;66.49
9690;BME280;4884;42.614;23.340;2022-07-17T06:39:22;160710.50;;;23.43;72.84
9690;BME280;4884;42.614;23.340;2022-07-17T06:41:48;160841.38;;;23.92;69.80
9690;BME280;4884;42.614;23.340;2022-07-17T06:44:13;160984.53;;;24.46;67.43
9690;BME280;4884;42.614;23.340;2022-07-17T06:46:39;161086.81;;;24.84;57.22
9690;BME280;4884;42.614;23.340;2022-07-17T06:49:06;161111.38;;;24.94;60.38
9690;BME280;4884;42.614;23.340;2022-07-17T06:51:33;161352.91;;;25.84;52.38
9690;BME280;4884;42.614;23.340;2022-07-17T06:53:59;161430.75;;;26.14;55.89
9690;BME280;4884;42.614;23.340;2022-07-17T06:56:24;161429.38;;;26.13;54.61
9690;BME280;4884;42.614;23.340;2022-07-17T06:58:50;161490.78;;;26.36;52.88
9690;BME280;4884;42.614;23.340;2022-07-17T07:01:15;161621.88;;;26.85;52.12
9690;BME280;4884;42.614;23.340;2022-07-17T07:03:41;161641.00;;;26.93;49.31
9690;BME280;4884;42.614;23.340;2022-07-17T07:06:07;161671.06;;;27.04;48.91
9690;BME280;4884;42.614;23.340;2022-07-17T07:08:35;161840.47;;;27.68;44.74
9690;BME280;4884;42.614;23.340;2022-07-17T07:11:01;161787.19;;;27.48;46.48
9690;BME280;4884;42.614;23.340;2022-07-17T07:13:28;161720.22;;;27.22;48.91
9690;BME280;4884;42.614;23.340;2022-07-17T07:15:53;161709.28;;;27.18;43.93
9690;BME280;4884;42.614;23.340;2022-07-17T07:18:19;161523.56;;;26.48;47.75
9690;BME280;4884;42.614;23.340;2022-07-17T07:20:44;161626.00;;;26.87;51.24
9690;BME280;4884;42.614;23.340;2022-07-17T07:23:10;161774.91;;;27.43;44.75
9690;BME280;4884;42.614;23.340;2022-07-17T07:25:35;161638.31;;;26.92;47.02
9690;BME280;4884;42.614;23.340;2022-07-17T07:28:01;161772.16;;;27.42;49.70
9690;BME280;4884;42.614;23.340;2022-07-17T07:30:27;161807.69;;;27.55;47.98
9690;BME280;4884;42.614;23.340;2022-07-17T07:32:52;161900.66;;;27.90;45.30
9690;BME280;4884;42.614;23.340;2022-07-17T07:35:18;161958.03;;;28.12;48.46
9690;BME280;4884;42.614;23.340;2022-07-17T07:37:43;161845.94;;;27.70;48.62
9690;BME280;4884;42.614;23.340;2022-07-17T07:40:10;161906.13;;;27.92;46.58
9690;BME280;4884;42.614;23.340;2022-07-17T07:42:36;161973.03;;;28.17;43.64
9690;BME280;4884;42.614;23.340;2022-07-17T07:45:01;161968.97;;;28.16;46.07
9690;BME280;4884;42.614;23.340;2022-07-17T07:47:27;161866.41;;;27.77;46.93
9690;BME280;4884;42.614;23.340;2022-07-17T07:49:52;162053.69;;;28.48;48.26
9690;BME280;4884;42.614;23.340;2022-07-17T07:52:18;161985.38;;;28.22;47.22
9690;BME280;4884;42.614;23.340;2022-07-17T07:54:43;161986.72;;;28.22;46.20
9690;BME280;4884;42.614;23.340;2022-07-17T07:57:09;162127.53;;;28.75;44.80
9690;BME280;4884;42.614;23.340;2022-07-17T07:59:35;162112.50;;;28.70;43.98
9690;BME280;4884;42.614;23.340;2022-07-17T08:02:01;162049.56;;;28.46;46.94
9690;BME280;4884;42.614;23.340;2022-07-17T08:04:26;162075.59;;;28.56;47.70
9690;BME280;4884;42.614;23.340;2022-07-17T08:06:52;162061.91;;;28.51;45.31
9690;BME280;4884;42.614;23.340;2022-07-17T08:09:18;162107.03;;;28.68;45.75
9690;BME280;4884;42.614;23.340;2022-07-17T08:11:44;162252.03;;;29.22;46.15
9690;BME280;4884;42.614;23.340;2022-07-17T08:14:09;162327.22;;;29.50;42.11
9690;BME280;4884;42.614;23.340;2022-07-17T08:16:35;162213.66;;;29.08;39.24
9690;BME280;4884;42.614;23.340;2022-07-17T08:19:00;162035.88;;;28.41;38.81
9690;BME280;4884;42.614;23.340;2022-07-17T08:21:26;162122.06;;;28.73;40.53
9690;BME280;4884;42.614;23.340;2022-07-17T08:23:52;162302.56;;;29.41;45.21
9690;BME280;4884;42.614;23.340;2022-07-17T08:26:17;162201.38;;;29.03;40.88
9690;BME280;4884;42.614;23.340;2022-07-17T08:28:43;162368.25;;;29.66;41.26
9690;BME280;4884;42.614;23.340;2022-07-17T08:31:08;162358.66;;;29.62;42.36
9690;BME280;4884;42.614;23.340;2022-07-17T08:33:35;162414.81;;;29.83;41.35
9690;BME280;4884;42.614;23.340;2022-07-17T08:36:00;162472.25;;;30.05;39.02
9690;BME280;4884;42.614;23.340;2022-07-17T08:38:26;162488.66;;;30.11;41.94
9690;BME280;4884;42.614;23.340;2022-07-17T08:40:51;162477.72;;;30.07;41.80
9690;BME280;4884;42.614;23.340;2022-07-17T08:43:19;162480.44;;;30.08;39.30
9690;BME280;4884;42.614;23.340;2022-07-17T08:45:45;162672.06;;;30.79;39.90
9690;BME280;4884;42.614;23.340;2022-07-17T08:48:15;162605.00;;;30.54;41.88
9690;BME280;4884;42.614;23.340;2022-07-17T08:50:42;162729.59;;;31.01;39.69
9690;BME280;4884;42.614;23.340;2022-07-17T08:53:10;162641.94;;;30.68;36.03
9690;BME280;4884;42.614;23.340;2022-07-17T08:55:37;162516.00;;;30.21;36.76
9690;BME280;4884;42.614;23.340;2022-07-17T08:58:03;162429.84;;;29.89;39.87
9690;BME280;4884;42.614;23.340;2022-07-17T09:00:32;162655.66;;;30.73;40.83
9690;BME280;4884;42.614;23.340;2022-07-17T09:03:00;162800.75;;;31.28;38.85
9690;BME280;4884;42.614;23.340;2022-07-17T09:05:29;162722.72;;;30.98;38.28
9690;BME280;4884;42.614;23.340;2022-07-17T09:07:56;162685.72;;;30.85;39.55
9690;BME280;4884;42.614;23.340;2022-07-17T09:10:33;162785.69;;;31.22;36.91
9690;BME280;4884;42.614;23.340;2022-07-17T09:12:59;162810.34;;;31.31;38.25
9690;BME280;4884;42.614;23.340;2022-07-17T09:15:26;162956.88;;;31.86;38.43
9690;BME280;4884;42.614;23.340;2022-07-17T09:17:54;162789.78;;;31.24;36.21
9690;BME280;4884;42.614;23.340;2022-07-17T09:20:21;162789.78;;;31.24;39.74
9690;BME280;4884;42.614;23.340;2022-07-17T09:23:03;162906.19;;;31.67;39.85
9690;BME280;4884;42.614;23.340;2022-07-17T09:25:41;163077.44;;;32.31;36.25
9690;BME280;4884;42.614;23.340;2022-07-17T09:28:09;163032.25;;;32.14;37.85
9690;BME280;4884;42.614;23.340;2022-07-17T09:30:44;163113.06;;;32.45;35.46
9690;BME280;4884;42.614;23.340;2022-07-17T09:33:22;163099.34;;;32.40;35.41
9690;BME280;4884;42.614;23.340;2022-07-17T09:36:05;163039.13;;;32.17;36.61
9690;BME280;4884;42.614;23.340;2022-07-17T09:38:33;163121.25;;;32.48;35.35
9690;BME280;4884;42.614;23.340;2022-07-17T09:41:17;162987.03;;;31.97;37.41
9690;BME280;4884;42.614;23.340;2022-07-17T09:43:52;163065.16;;;32.27;37.30
9690;BME280;4884;42.614;23.340;2022-07-17T09:48:55;163204.88;;;32.79;32.29
9690;BME280;4884;42.614;23.340;2022-07-17T09:51:26;163058.25;;;32.24;36.76
9690;BME280;4884;42.614;23.340;2022-07-17T09:53:54;162981.56;;;31.95;35.79
9690;BME280;4884;42.614;23.340;2022-07-17T09:56:23;163050.06;;;32.21;33.56
9690;BME280;4884;42.614;23.340;2022-07-17T09:58:54;162932.22;;;31.77;35.35
9690;BME280;4884;42.614;23.340;2022-07-17T10:01:20;163019.94;;;32.10;37.46
9690;BME280;4884;42.614;23.340;2022-07-17T10:03:46;163069.22;;;32.28;37.71
9690;BME280;4884;42.614;23.340;2022-07-17T10:06:14;163228.19;;;32.88;38.64
9690;BME280;4884;42.614;23.340;2022-07-17T10:08:41;163247.34;;;32.95;36.07
9690;BME280;4884;42.614;23.340;2022-07-17T10:11:07;163313.19;;;33.20;37.06
9690;BME280;4884;42.614;23.340;2022-07-17T10:13:36;163428.38;;;33.63;35.28
9690;BME280;4884;42.614;23.340;2022-07-17T10:16:04;163450.28;;;33.71;33.84
9690;BME280;4884;42.614;23.340;2022-07-17T10:18:38;163332.34;;;33.27;34.74
9690;BME280;4884;42.614;23.340;2022-07-17T10:21:18;163288.53;;;33.10;34.36
9690;BME280;4884;42.614;23.340;2022-07-17T10:24:05;163269.25;;;33.03;34.83
9690;BME280;4884;42.614;23.340;2022-07-17T10:29:07;163099.34;;;32.40;36.42
9690;BME280;4884;42.614;23.340;2022-07-17T10:31:32;163304.94;;;33.17;34.21
9690;BME280;4884;42.614;23.340;2022-07-17T10:34:01;163376.22;;;33.43;34.90
9690;BME280;4884;42.614;23.340;2022-07-17T10:41:35;163351.56;;;33.34;34.75
9690;BME280;4884;42.614;23.340;2022-07-17T10:44:01;163549.00;;;34.08;34.88
9690;BME280;4884;42.614;23.340;2022-07-17T10:46:27;163594.25;;;34.25;31.96
9690;BME280;4884;42.614;23.340;2022-07-17T10:48:55;163532.50;;;34.02;31.23
9690;BME280;4884;42.614;23.340;2022-07-17T10:51:23;163551.72;;;34.09;32.85
9690;BME280;4884;42.614;23.340;2022-07-17T10:53:49;163529.78;;;34.01;33.89
9690;BME280;4884;42.614;23.340;2022-07-17T10:56:15;163206.25;;;32.80;31.80
9690;BME280;4884;42.614;23.340;2022-07-17T10:58:43;163247.34;;;32.95;34.17
9690;BME280;4884;42.614;23.340;2022-07-17T11:01:15;163468.09;;;33.78;33.38
9690;BME280;4884;42.614;23.340;2022-07-17T11:06:17;163738.31;;;34.79;33.12
9690;BME280;4884;42.614;23.340;2022-07-17T11:09:00;163765.75;;;34.89;31.43
9690;BME280;4884;42.614;23.340;2022-07-17T11:11:46;163639.53;;;34.42;34.02
9690;BME280;4884;42.614;23.340;2022-07-17T11:16:45;163653.22;;;34.47;32.44
9690;BME280;4884;42.614;23.340;2022-07-17T11:19:12;163411.88;;;33.57;33.41
9690;BME280;4884;42.614;23.340;2022-07-17T11:21:48;162777.50;;;31.19;34.32
9690;BME280;4884;42.614;23.340;2022-07-17T11:24:14;163041.84;;;32.18;37.13
9690;BME280;4884;42.614;23.340;2022-07-17T11:26:39;162900.72;;;31.65;35.85
9690;BME280;4884;42.614;23.340;2022-07-17T11:29:05;163140.47;;;32.55;36.30
9690;BME280;4884;42.614;23.340;2022-07-17T11:31:31;163246.00;;;32.94;36.18
9690;BME280;4884;42.614;23.340;2022-07-17T11:36:26;163244.63;;;32.94;32.03
9690;BME280;4884;42.614;23.340;2022-07-17T11:38:53;163357.03;;;33.36;33.51
9690;BME280;4884;42.614;23.340;2022-07-17T11:41:19;163244.63;;;32.94;35.19
9690;BME280;4884;42.614;23.340;2022-07-17T11:43:46;163000.75;;;32.03;34.03
9690;BME280;4884;42.614;23.340;2022-07-17T11:46:14;162806.22;;;31.30;36.73
9690;BME280;4884;42.614;23.340;2022-07-17T11:48:42;162540.66;;;30.30;37.64
9690;BME280;4884;42.614;23.340;2022-07-17T11:51:08;162932.22;;;31.77;39.02
9690;BME280;4884;42.614;23.340;2022-07-17T11:53:37;162951.41;;;31.84;36.00
9690;BME280;4884;42.614;23.340;2022-07-17T11:56:04;163151.47;;;32.59;33.79
9690;BME280;4884;42.614;23.340;2022-07-17T11:58:43;163281.63;;;33.08;36.02
9690;BME280;4884;42.614;23.340;2022-07-17T12:01:09;163365.28;;;33.39;33.92
9690;BME280;4884;42.614;23.340;2022-07-17T12:03:35;163601.16;;;34.27;34.80
9690;BME280;4884;42.614;23.340;2022-07-17T12:06:00;163538.03;;;34.04;33.67
9690;BME280;4884;42.614;23.340;2022-07-17T12:08:26;163620.31;;;34.35;33.76
9690;BME280;4884;42.614;23.340;2022-07-17T12:11:03;163719.09;;;34.71;31.64
9690;BME280;4884;42.614;23.340;2022-07-17T12:13:43;163772.59;;;34.91;34.05
9690;BME280;4884;42.614;23.340;2022-07-17T12:19:05;163377.59;;;33.44;31.14
9690;BME280;4884;42.614;23.340;2022-07-17T12:21:46;163362.50;;;33.38;32.00
9690;BME280;4884;42.614;23.340;2022-07-17T12:24:19;163510.59;;;33.93;32.84
9690;BME280;4884;42.614;23.340;2022-07-17T12:26:45;163739.69;;;34.79;33.33
9690;BME280;4884;42.614;23.340;2022-07-17T12:29:10;163727.34;;;34.75;33.99
9690;BME280;4884;42.614;23.340;2022-07-17T12:31:36;163872.75;;;35.29;31.78
9690;BME280;4884;42.614;23.340;2022-07-17T12:34:01;163783.53;;;34.96;32.46
9690;BME280;4884;42.614;23.340;2022-07-17T12:36:27;163809.59;;;35.05;32.37
9690;BME280;4884;42.614;23.340;2022-07-17T12:38:52;163658.69;;;34.49;32.54
9690;BME280;4884;42.614;23.340;2022-07-17T12:41:18;163628.56;;;34.38;34.31
9690;BME280;4884;42.614;23.340;2022-07-17T12:43:44;163647.72;;;34.45;33.08
9690;BME280;4884;42.614;23.340;2022-07-17T12:46:10;163580.59;;;34.20;33.49
9690;BME280;4884;42.614;23.340;2022-07-17T12:48:36;163398.16;;;33.51;35.42
9690;BME280;4884;42.614;23.340;2022-07-17T12:51:04;163124.03;;;32.49;36.50
9690;BME280;4884;42.614;23.340;2022-07-17T12:53:29;162839.09;;;31.42;38.44
9690;BME280;4884;42.614;23.340;2022-07-17T12:55:55;162722.72;;;30.98;37.45
9690;BME280;4884;42.614;23.340;2022-07-17T12:58:20;162566.69;;;30.40;38.59
9690;BME280;4884;42.614;23.340;2022-07-17T13:00:46;162494.13;;;30.13;40.83
9690;BME280;4884;42.614;23.340;2022-07-17T13:03:12;162412.03;;;29.82;40.54
9690;BME280;4884;42.614;23.340;2022-07-17T13:05:37;162364.13;;;29.64;41.93
9690;BME280;4884;42.614;23.340;2022-07-17T13:08:03;162232.84;;;29.15;43.63
9690;BME280;4884;42.614;23.340;2022-07-17T13:10:28;162135.78;;;28.78;44.97
9690;BME280;4884;42.614;23.340;2022-07-17T13:12:54;162108.38;;;28.68;46.76
9690;BME280;4884;42.614;23.340;2022-07-17T13:15:19;162016.78;;;28.34;47.17